Time;durP1;ratioP1;P1;durP2;ratioP2;P2;SDS_P1;SDS_P2;PMS_P1;PMS_P2;Temp;Humidity;BMP_temperature;BMP_pressure;BME280_temperature;BME280_humidity;BME280_pressure;Samples;Min_cycle;Max_cycle;Signal;HPM_P1;HPM_P2
2022/10/24 00:01:16;;;;;;;5.10;3.20;;;;;;;12.42;100.00;96064.53;5089681;28;20900;-79
2022/10/24 00:03:42;;;;;;;5.63;2.80;;;;;;;12.36;100.00;96055.28;5076006;28;20453;-78
2022/10/24 00:06:11;;;;;;;2.90;2.53;;;;;;;12.53;100.00;96085.22;5059421;28;20535;-79
2022/10/24 00:08:39;;;;;;;4.60;3.10;;;;;;;12.53;100.00;96093.16;5078486;28;20496;-79
2022/10/24 00:11:11;;;;;;;6.10;4.63;;;;;;;12.59;100.00;96097.09;5076394;28;20519;-79
2022/10/24 00:13:39;;;;;;;11.70;3.30;;;;;;;12.53;100.00;96111.72;5093095;28;20440;-79
2022/10/24 00:16:06;;;;;;;8.53;2.90;;;;;;;12.34;100.00;96078.72;5093465;28;20424;-79
2022/10/24 00:18:33;;;;;;;14.03;3.23;;;;;;;12.34;100.00;96067.38;5077293;28;20528;-79
2022/10/24 00:21:00;;;;;;;8.83;2.80;;;;;;;12.64;100.00;96107.44;5076398;28;20526;-79
2022/10/24 00:23:26;;;;;;;8.30;3.33;;;;;;;12.73;100.00;96126.59;5076567;28;20483;-79
2022/10/24 00:25:53;;;;;;;5.80;2.90;;;;;;;12.44;100.00;96090.72;5076680;28;20447;-79
2022/10/24 00:28:20;;;;;;;3.90;2.40;;;;;;;12.65;100.00;96101.03;5089054;28;20475;-79
2022/10/24 00:30:51;;;;;;;4.90;3.10;;;;;;;13.02;100.00;96170.47;5082872;28;20551;-79
2022/10/24 00:33:18;;;;;;;7.63;2.87;;;;;;;13.02;100.00;96171.25;5057848;28;20441;-79
2022/10/24 00:35:45;;;;;;;6.90;3.30;;;;;;;12.38;100.00;96073.50;5080994;28;20439;-81
2022/10/24 00:38:12;;;;;;;6.93;2.40;;;;;;;12.33;100.00;96063.94;5076469;28;20504;-80
2022/10/24 00:40:39;;;;;;;5.40;2.50;;;;;;;12.49;100.00;96085.13;5077781;28;20899;-79
2022/10/24 00:43:26;;;;;;;5.97;3.00;;;;;;;12.55;100.00;96086.41;5095704;28;20456;-81
2022/10/24 00:46:00;;;;;;;4.60;2.47;;;;;;;12.78;100.00;96114.94;5097956;28;20949;-79
2022/10/24 00:48:30;;;;;;;3.43;3.13;;;;;;;12.85;100.00;96131.03;5088819;28;20533;-79
2022/10/24 00:51:26;;;;;;;8.33;2.67;;;;;;;12.54;100.00;96107.97;5073770;28;20890;-79
2022/10/24 00:53:57;;;;;;;5.60;2.57;;;;;;;12.37;100.00;96109.09;5088445;28;20882;-79
2022/10/24 00:56:29;;;;;;;11.47;2.63;;;;;;;12.27;100.00;96115.66;5002881;28;20469;-79
2022/10/24 00:58:57;;;;;;;3.13;2.00;;;;;;;12.11;100.00;96107.72;5075864;28;20501;-81
2022/10/24 01:01:25;;;;;;;6.50;2.70;;;;;;;11.99;100.00;96099.84;5077139;28;20460;-80
2022/10/24 01:03:51;;;;;;;4.87;2.57;;;;;;;11.31;100.00;96011.78;5090895;28;20475;-81
2022/10/24 01:06:37;;;;;;;4.27;2.90;;;;;;;11.83;100.00;96109.63;5096944;28;20483;-81
2022/10/24 01:09:13;;;;;;;4.07;2.50;;;;;;;11.90;100.00;96109.84;5097545;28;20415;-81
2022/10/24 01:12:05;;;;;;;6.83;2.77;;;;;;;11.76;100.00;96096.19;5082832;28;20458;-80
2022/10/24 01:14:48;;;;;;;3.37;2.50;;;;;;;11.83;100.00;96121.00;5059782;28;20449;-81
2022/10/24 01:17:24;;;;;;;5.10;2.50;;;;;;;11.70;100.00;96113.44;5083347;28;20422;-80
2022/10/24 01:20:18;;;;;;;8.67;3.13;;;;;;;11.50;100.00;96107.22;5064874;28;20535;-81
2022/10/24 01:23:07;;;;;;;6.23;2.80;;;;;;;11.38;100.00;96107.28;5075455;28;20956;-81
2022/10/24 01:25:49;;;;;;;4.60;2.50;;;;;;;11.32;100.00;96101.44;5063740;28;20943;-81
2022/10/24 01:28:37;;;;;;;10.53;3.43;;;;;;;11.37;100.00;96108.38;5092477;28;20476;-81
2022/10/24 01:31:10;;;;;;;9.90;2.70;;;;;;;11.37;100.00;96073.97;5082496;28;20447;-80
2022/10/24 01:33:44;;;;;;;4.73;2.73;;;;;;;11.11;100.00;96026.75;5064553;28;20503;-81
2022/10/24 01:36:29;;;;;;;5.37;2.60;;;;;;;11.48;100.00;96090.88;5072936;28;20446;-81
2022/10/24 01:39:01;;;;;;;4.43;2.40;;;;;;;11.59;100.00;96097.25;5067539;28;20515;-80
2022/10/24 01:41:30;;;;;;;7.40;2.73;;;;;;;11.60;100.00;96111.25;5079963;28;20487;-81
2022/10/24 01:44:13;;;;;;;5.47;2.80;;;;;;;11.55;100.00;96112.28;5095351;28;20474;-81
2022/10/24 01:46:45;;;;;;;4.80;2.70;;;;;;;11.54;100.00;96121.31;5062708;28;20808;-81
2022/10/24 01:49:16;;;;;;;3.70;2.33;;;;;;;11.50;100.00;96115.19;5077309;28;20475;-80
2022/10/24 01:51:46;;;;;;;9.00;2.90;;;;;;;11.48;100.00;96123.44;5094874;28;21006;-81
2022/10/24 01:54:13;;;;;;;5.40;2.63;;;;;;;11.35;100.00;96097.34;5078078;28;20458;-81
2022/10/24 01:56:40;;;;;;;5.07;2.40;;;;;;;11.24;100.00;96097.84;5075598;28;20428;-81
2022/10/24 01:59:28;;;;;;;3.23;2.17;;;;;;;11.37;100.00;96126.91;5090860;28;20514;-80
2022/10/24 02:02:10;;;;;;;7.13;3.07;;;;;;;11.35;100.00;96131.75;5087428;28;20510;-81
2022/10/24 02:04:43;;;;;;;6.50;2.10;;;;;;;11.37;100.00;96135.63;5094676;28;20463;-81
2022/10/24 02:07:12;;;;;;;3.23;2.00;;;;;;;11.11;100.00;96092.91;5077951;28;20413;-81
2022/10/24 02:09:42;;;;;;;2.00;1.70;;;;;;;11.18;100.00;96117.69;5073862;28;20470;-80
2022/10/24 02:12:13;;;;;;;7.40;2.70;;;;;;;10.69;100.00;96053.53;5073528;28;21023;-81
2022/10/24 02:14:50;;;;;;;3.80;2.37;;;;;;;10.93;100.00;96079.16;5074063;28;20494;-81
2022/10/24 02:17:17;;;;;;;4.30;2.00;;;;;;;11.04;100.00;96092.69;5098748;28;20462;-81
2022/10/24 02:19:45;;;;;;;8.80;2.80;;;;;;;10.65;100.00;96019.03;5086163;28;20921;-81
2022/10/24 02:22:36;;;;;;;6.43;3.30;;;;;;;11.26;100.00;96118.66;5061427;28;20486;-81
2022/10/24 02:25:23;;;;;;;3.60;2.20;;;;;;;11.04;100.00;96080.22;5083118;28;20871;-80
2022/10/24 02:27:58;;;;;;;3.50;2.53;;;;;;;11.05;100.00;96079.13;5068110;28;20428;-80
2022/10/24 02:30:29;;;;;;;4.07;2.50;;;;;;;10.84;100.00;96042.28;5077939;28;20552;-81
2022/10/24 02:32:58;;;;;;;5.07;2.00;;;;;;;11.16;100.00;96088.13;5094741;28;20948;-81
2022/10/24 02:35:28;;;;;;;4.70;2.60;;;;;;;11.00;100.00;96060.84;5060795;28;20439;-81
2022/10/24 02:38:05;;;;;;;8.80;2.90;;;;;;;11.23;100.00;96091.00;5098495;28;20427;-81
2022/10/24 02:40:33;;;;;;;3.93;2.20;;;;;;;11.14;100.00;96071.06;5094007;28;20456;-81
2022/10/24 02:43:03;;;;;;;10.20;3.40;;;;;;;10.68;100.00;96003.63;5112920;28;20448;-81
2022/10/24 02:45:30;;;;;;;4.43;2.20;;;;;;;10.81;100.00;96018.34;5102951;28;20432;-81
2022/10/24 02:48:01;;;;;;;3.83;2.07;;;;;;;10.38;100.00;95950.28;5098910;28;20435;-81
2022/10/24 02:50:30;;;;;;;4.50;2.37;;;;;;;10.92;100.00;96027.34;5097620;28;20522;-81
2022/10/24 02:52:57;;;;;;;8.80;2.30;;;;;;;11.27;100.00;96079.72;5085311;28;20450;-81
2022/10/24 02:55:24;;;;;;;6.30;2.90;;;;;;;11.52;100.00;96094.44;5087111;28;20428;-81
2022/10/24 02:57:51;;;;;;;4.67;2.20;;;;;;;11.30;100.00;96065.81;5079597;28;20543;-81
2022/10/24 03:00:17;;;;;;;4.47;2.70;;;;;;;11.11;100.00;96047.94;5079702;28;20450;-81
2022/10/24 03:02:44;;;;;;;4.47;1.80;;;;;;;10.33;100.00;95938.84;5078821;28;20436;-81
2022/10/24 03:05:11;;;;;;;6.20;2.07;;;;;;;11.13;100.00;96069.53;5091393;28;20529;-81
2022/10/24 03:07:38;;;;;;;4.50;2.47;;;;;;;11.39;100.00;96093.69;5078333;28;20534;-81
2022/10/24 03:10:05;;;;;;;5.40;2.27;;;;;;;11.28;100.00;96086.56;5074946;28;20483;-81
2022/10/24 03:12:31;;;;;;;5.13;2.20;;;;;;;11.29;100.00;96106.63;5078343;28;20474;-81
2022/10/24 03:14:58;;;;;;;3.03;2.27;;;;;;;11.12;100.00;96089.16;5075675;28;20795;-81
2022/10/24 03:17:25;;;;;;;5.03;2.90;;;;;;;10.90;100.00;96058.66;5090536;28;20443;-81
2022/10/24 03:19:51;;;;;;;3.83;2.20;;;;;;;11.16;100.00;96100.59;5077416;28;20472;-81
2022/10/24 03:22:18;;;;;;;7.50;2.40;;;;;;;10.62;100.00;96013.66;5057603;28;20905;-81
2022/10/24 03:24:45;;;;;;;2.90;2.30;;;;;;;11.05;100.00;96095.00;5070413;28;20485;-81
2022/10/24 03:27:21;;;;;;;4.83;2.83;;;;;;;10.59;100.00;96038.91;5096988;28;20445;-81
2022/10/24 03:29:48;;;;;;;2.37;1.80;;;;;;;10.32;100.00;96021.09;5081352;28;20510;-81
2022/10/24 03:32:15;;;;;;;3.83;2.70;;;;;;;10.70;100.00;96083.41;5077207;28;20435;-81
2022/10/24 03:34:41;;;;;;;6.20;2.23;;;;;;;10.78;100.00;96106.28;5076933;28;20424;-81
2022/10/24 03:37:08;;;;;;;5.47;2.63;;;;;;;10.36;100.00;96048.38;5076640;28;20439;-81
2022/10/24 03:39:35;;;;;;;7.27;2.90;;;;;;;10.54;100.00;96078.75;5079988;28;20429;-81
2022/10/24 03:42:01;;;;;;;3.10;1.90;;;;;;;10.47;100.00;96072.50;5057029;28;20963;-81
2022/10/24 03:44:28;;;;;;;9.00;2.07;;;;;;;10.20;100.00;96042.97;5062539;28;20985;-80
2022/10/24 03:46:55;;;;;;;7.40;2.13;;;;;;;10.32;100.00;96058.84;5083944;28;20441;-81
2022/10/24 03:49:21;;;;;;;8.93;2.80;;;;;;;10.20;100.00;96036.91;5090059;28;20463;-81
2022/10/24 03:51:48;;;;;;;4.93;2.83;;;;;;;10.42;100.00;96057.66;5096311;28;20846;-81
2022/10/24 03:54:15;;;;;;;3.70;2.23;;;;;;;10.16;100.00;96017.53;5097633;28;20514;-81
2022/10/24 03:56:43;;;;;;;3.87;2.27;;;;;;;10.70;100.00;96086.81;5086261;28;20421;-80
2022/10/24 03:59:10;;;;;;;8.90;3.37;;;;;;;10.41;100.00;96053.44;5079330;28;20959;-80
2022/10/24 04:01:36;;;;;;;3.60;2.03;;;;;;;10.46;100.00;96058.50;5085794;28;20453;-81
2022/10/24 04:04:03;;;;;;;3.30;1.93;;;;;;;10.35;100.00;96054.78;5089242;28;20470;-81
2022/10/24 04:06:30;;;;;;;3.47;2.47;;;;;;;10.47;100.00;96070.63;5075833;28;20960;-81
2022/10/24 04:09:02;;;;;;;4.70;2.50;;;;;;;10.18;100.00;96020.63;5089747;28;21017;-81
2022/10/24 04:11:29;;;;;;;6.23;2.50;;;;;;;10.56;100.00;96083.75;5076187;28;20968;-81
2022/10/24 04:13:56;;;;;;;3.23;2.37;;;;;;;10.65;100.00;96103.66;5075155;28;20428;-79
2022/10/24 04:16:23;;;;;;;5.90;2.80;;;;;;;10.55;100.00;96088.25;5087145;28;21041;-78
2022/10/24 04:18:50;;;;;;;4.23;2.77;;;;;;;10.45;100.00;96075.47;5081244;28;20423;-78
2022/10/24 04:21:18;;;;;;;6.07;2.93;;;;;;;10.58;100.00;96092.09;5082524;28;20551;-78
2022/10/24 04:23:47;;;;;;;5.30;2.93;;;;;;;10.52;100.00;96082.84;5084818;28;20461;-78
2022/10/24 04:26:15;;;;;;;3.50;2.77;;;;;;;10.36;100.00;96058.94;5067210;28;20432;-78
2022/10/24 04:28:42;;;;;;;6.03;3.07;;;;;;;10.38;100.00;96064.66;5087994;28;20443;-78
2022/10/24 04:31:09;;;;;;;9.87;2.80;;;;;;;10.49;100.00;96079.00;5068301;28;20548;-78
2022/10/24 04:33:35;;;;;;;10.17;4.50;;;;;;;10.25;100.00;96049.91;5086867;28;20436;-78
2022/10/24 04:36:02;;;;;;;3.53;2.93;;;;;;;10.34;100.00;96066.44;5069752;28;20438;-79
2022/10/24 04:38:29;;;;;;;4.47;2.53;;;;;;;10.50;100.00;96095.63;5085967;28;20445;-79
2022/10/24 04:40:59;;;;;;;2.97;2.67;;;;;;;10.32;100.00;96071.28;5070416;28;20483;-78
2022/10/24 04:43:26;;;;;;;5.07;3.03;;;;;;;10.30;100.00;96062.94;5090803;28;20540;-78
2022/10/24 04:45:52;;;;;;;4.07;3.50;;;;;;;10.19;100.00;96038.00;5082486;28;20790;-78
2022/10/24 04:48:23;;;;;;;3.07;2.87;;;;;;;10.46;100.00;96073.59;5067821;28;20539;-78
2022/10/24 04:50:53;;;;;;;4.97;2.97;;;;;;;10.23;100.00;96023.84;5083225;28;20464;-78
2022/10/24 04:53:20;;;;;;;3.90;3.37;;;;;;;10.20;100.00;96026.34;5082750;28;20487;-78
2022/10/24 04:55:47;;;;;;;4.20;3.20;;;;;;;10.42;100.00;96062.16;5100982;28;20939;-79
2022/10/24 04:58:13;;;;;;;3.50;2.93;;;;;;;10.24;100.00;96040.44;5074749;28;20525;-79
2022/10/24 05:00:45;;;;;;;5.17;2.87;;;;;;;10.26;100.00;96036.38;5063368;28;20454;-78
2022/10/24 05:03:12;;;;;;;7.17;3.23;;;;;;;10.54;100.00;96086.69;5084966;28;20444;-79
2022/10/24 05:05:39;;;;;;;8.67;3.03;;;;;;;10.38;100.00;96062.03;5070991;28;20456;-78
2022/10/24 05:08:05;;;;;;;5.10;2.77;;;;;;;10.17;100.00;96030.41;5074626;28;20971;-78
2022/10/24 05:10:41;;;;;;;5.83;3.20;;;;;;;10.51;100.00;96068.09;5090360;28;20494;-79
2022/10/24 05:13:24;;;;;;;7.13;3.13;;;;;;;10.50;100.00;96055.97;5092515;28;20439;-80
2022/10/24 05:15:51;;;;;;;7.07;3.30;;;;;;;10.35;100.00;96036.28;5066334;28;20441;-80
2022/10/24 05:18:17;;;;;;;7.97;3.93;;;;;;;10.21;100.00;96031.31;5068456;28;20444;-79
2022/10/24 05:20:44;;;;;;;5.57;3.00;;;;;;;10.29;100.00;96043.66;5071709;28;20838;-79
2022/10/24 05:23:10;;;;;;;4.30;3.90;;;;;;;10.40;100.00;96043.97;5089730;28;20448;-78
2022/10/24 05:25:38;;;;;;;5.17;3.07;;;;;;;10.18;100.00;96017.97;5083337;28;20488;-79
2022/10/24 05:28:04;;;;;;;3.63;3.00;;;;;;;10.50;100.00;96074.47;5066334;28;20463;-79
2022/10/24 05:30:31;;;;;;;6.13;3.50;;;;;;;10.43;100.00;96050.47;5105864;28;20456;-79
2022/10/24 05:32:58;;;;;;;4.20;3.20;;;;;;;10.36;100.00;96053.66;5089175;28;20500;-79
2022/10/24 05:35:25;;;;;;;3.30;3.00;;;;;;;10.16;100.00;96022.81;5066289;28;20534;-79
2022/10/24 05:37:51;;;;;;;5.00;3.33;;;;;;;10.31;100.00;96048.63;5094015;28;20523;-80
2022/10/24 05:40:18;;;;;;;8.23;4.03;;;;;;;10.38;100.00;96040.88;5086259;28;20543;-79
2022/10/24 05:42:45;;;;;;;3.40;3.10;;;;;;;10.64;100.00;96085.47;5081254;28;20443;-79
2022/10/24 05:45:12;;;;;;;9.43;4.10;;;;;;;10.07;100.00;96002.56;5084547;28;20534;-79
2022/10/24 05:47:39;;;;;;;7.43;3.80;;;;;;;10.53;100.00;96056.06;5070522;28;20469;-79
2022/10/24 05:50:06;;;;;;;7.97;3.53;;;;;;;10.66;100.00;96073.47;5092061;28;20468;-79
2022/10/24 05:52:35;;;;;;;4.60;3.37;;;;;;;10.59;100.00;96057.41;5090304;28;20416;-79
2022/10/24 05:55:06;;;;;;;6.13;3.97;;;;;;;10.76;100.00;96082.81;5100674;28;20441;-79
2022/10/24 05:57:35;;;;;;;3.37;2.60;;;;;;;10.75;100.00;96077.88;5088065;28;20426;-79
2022/10/24 06:00:17;;;;;;;6.27;3.70;;;;;;;10.51;100.00;96044.28;5126791;27;20556;-79
2022/10/24 06:02:45;;;;;;;5.97;4.27;;;;;;;10.54;100.00;96065.53;5120608;28;20441;-79
2022/10/24 06:05:13;;;;;;;8.03;4.77;;;;;;;10.72;100.00;96091.75;5075533;28;20445;-81
2022/10/24 06:07:40;;;;;;;5.70;3.60;;;;;;;10.72;100.00;96087.25;5048132;28;20452;-81
2022/10/24 06:10:08;;;;;;;7.17;4.80;;;;;;;10.69;100.00;96079.97;5034147;28;20457;-80
2022/10/24 06:12:35;;;;;;;7.90;4.10;;;;;;;10.45;100.00;96045.63;5034114;28;20809;-81
2022/10/24 06:15:04;;;;;;;4.80;4.40;;;;;;;10.64;100.00;96065.09;5048386;28;20496;-81
2022/10/24 06:17:30;;;;;;;6.80;5.37;;;;;;;10.77;100.00;96076.44;5045381;28;20450;-80
2022/10/24 06:19:57;;;;;;;6.17;5.07;;;;;;;10.49;100.00;96038.56;5035567;28;20480;-81
2022/10/24 06:22:26;;;;;;;4.73;3.90;;;;;;;10.46;100.00;96034.72;5049663;28;20489;-81
2022/10/24 06:24:53;;;;;;;8.00;5.57;;;;;;;10.57;100.00;96043.75;5105503;28;20450;-80
2022/10/24 06:27:19;;;;;;;6.80;5.57;;;;;;;10.67;100.00;96055.72;5092162;28;20427;-80
2022/10/24 06:29:46;;;;;;;6.50;5.87;;;;;;;10.55;100.00;96037.22;5094281;28;20458;-80
2022/10/24 06:32:13;;;;;;;14.80;6.40;;;;;;;9.45;100.00;95861.09;5105959;28;20550;-80
2022/10/24 06:34:39;;;;;;;5.77;5.17;;;;;;;9.85;100.00;95915.84;5108032;28;20785;-80
2022/10/24 06:37:06;;;;;;;8.77;5.13;;;;;;;10.65;100.00;96024.34;5100600;28;20429;-80
2022/10/24 06:39:33;;;;;;;6.20;4.50;;;;;;;10.91;100.00;96068.13;5098290;28;20547;-81
2022/10/24 06:42:00;;;;;;;4.67;4.27;;;;;;;11.02;100.00;96079.81;5085759;28;20436;-81
2022/10/24 06:44:27;;;;;;;4.90;4.20;;;;;;;11.03;100.00;96075.28;5091350;28;20442;-80
2022/10/24 06:46:54;;;;;;;7.70;4.40;;;;;;;10.82;100.00;96044.47;5084184;28;20427;-80
2022/10/24 06:49:20;;;;;;;4.83;4.27;;;;;;;11.03;100.00;96088.50;5098209;28;20458;-80
2022/10/24 06:51:47;;;;;;;5.93;4.67;;;;;;;10.62;100.00;96038.22;5082172;28;20463;-80
2022/10/24 06:54:15;;;;;;;4.73;4.33;;;;;;;11.00;100.00;96107.69;5089996;28;20535;-80
2022/10/24 06:56:42;;;;;;;4.67;4.23;;;;;;;11.07;100.00;96110.53;5102219;28;21108;-80
2022/10/24 06:59:10;;;;;;;7.03;4.70;;;;;;;11.17;100.00;96118.78;5092529;28;20562;-80
2022/10/24 07:01:36;;;;;;;9.27;4.60;;;;;;;10.84;100.00;96062.66;5092111;28;20448;-80
2022/10/24 07:04:04;;;;;;;8.27;5.10;;;;;;;10.96;100.00;96091.72;5104873;28;20435;-80
2022/10/24 07:06:31;;;;;;;6.13;5.40;;;;;;;11.12;100.00;96121.69;5091063;28;20432;-80
2022/10/24 07:09:00;;;;;;;7.80;4.70;;;;;;;10.98;100.00;96084.22;5091694;28;20700;-81
2022/10/24 07:11:27;;;;;;;9.00;5.33;;;;;;;11.30;100.00;96121.41;5079100;28;20809;-80
2022/10/24 07:13:54;;;;;;;7.73;5.73;;;;;;;11.32;100.00;96111.25;5078307;28;20534;-80
2022/10/24 07:16:27;;;;;;;8.03;4.70;;;;;;;10.92;100.00;96049.28;5091069;28;21047;-80
2022/10/24 07:18:54;;;;;;;8.27;4.40;;;;;;;10.10;100.00;95924.53;5085274;28;20455;-80
2022/10/24 07:21:24;;;;;;;6.97;4.83;;;;;;;11.33;100.00;96105.63;5085738;28;20480;-81
2022/10/24 07:23:52;;;;;;;4.70;3.50;;;;;;;11.22;100.00;96080.75;5079111;28;20443;-80
2022/10/24 07:26:20;;;;;;;9.77;5.33;;;;;;;11.38;100.00;96097.44;5092082;28;20442;-80
2022/10/24 07:28:53;;;;;;;6.70;5.47;;;;;;;11.45;100.00;96092.34;5080965;28;20923;-80
2022/10/24 07:31:22;;;;;;;6.73;5.13;;;;;;;11.47;100.00;96098.06;5091125;28;20458;-80
2022/10/24 07:33:50;;;;;;;9.47;4.27;;;;;;;11.30;100.00;96058.66;5079160;28;20478;-80
2022/10/24 07:36:19;;;;;;;9.13;5.57;;;;;;;11.35;100.00;96057.63;5091334;28;20805;-81
2022/10/24 07:38:47;;;;;;;6.00;4.57;;;;;;;11.12;100.00;96020.34;5088425;28;20558;-80
2022/10/24 07:41:13;;;;;;;11.87;5.07;;;;;;;11.93;100.00;96118.97;5084678;28;20527;-80
2022/10/24 07:43:40;;;;;;;7.17;5.10;;;;;;;12.03;100.00;96129.09;5090138;28;20794;-80
2022/10/24 07:46:15;;;;;;;4.83;4.33;;;;;;;11.75;100.00;96081.38;5091641;28;21024;-80
2022/10/24 07:48:42;;;;;;;8.57;5.60;;;;;;;11.68;100.00;96055.50;5088964;28;20431;-80
2022/10/24 07:51:11;;;;;;;6.93;4.40;;;;;;;11.91;100.00;96087.53;5084688;28;20478;-80
2022/10/24 07:53:38;;;;;;;11.60;5.27;;;;;;;12.05;100.00;96097.72;5086791;28;20440;-80
2022/10/24 07:56:08;;;;;;;7.67;5.03;;;;;;;12.29;100.00;96150.59;5078137;28;20443;-80
2022/10/24 07:58:36;;;;;;;5.53;5.03;;;;;;;12.47;100.00;96174.88;5078134;28;20472;-80
2022/10/24 08:01:04;;;;;;;7.47;5.23;;;;;;;12.49;100.00;96175.31;5093121;28;20458;-80
2022/10/24 08:03:31;;;;;;;7.13;5.07;;;;;;;12.42;100.00;96160.00;5080890;28;20531;-80
2022/10/24 08:05:58;;;;;;;9.30;5.13;;;;;;;12.41;100.00;96192.13;5078729;28;20808;-80
2022/10/24 08:08:25;;;;;;;7.60;4.93;;;;;;;12.15;100.00;96160.78;5077798;28;20535;-80
2022/10/24 08:11:12;;;;;;;11.57;6.00;;;;;;;12.54;100.00;96229.97;5069323;28;20992;-80
2022/10/24 08:13:39;;;;;;;9.33;6.47;;;;;;;12.14;100.00;96175.94;5092118;28;20421;-80
2022/10/24 08:16:08;;;;;;;6.27;5.70;;;;;;;11.95;100.00;96167.09;5098410;28;20455;-80
2022/10/24 08:18:35;;;;;;;14.20;5.47;;;;;;;12.43;100.00;96237.66;5096832;28;20438;-80
2022/10/24 08:21:07;;;;;;;7.07;4.93;;;;;;;12.56;100.00;96270.97;5096025;28;20528;-80
2022/10/24 08:23:36;;;;;;;11.40;5.73;;;;;;;12.63;100.00;96281.75;5083139;28;20436;-82
2022/10/24 08:26:08;;;;;;;6.40;5.20;;;;;;;12.42;100.00;96249.38;5097290;28;20461;-82
2022/10/24 08:28:35;;;;;;;7.60;4.50;;;;;;;12.54;100.00;96283.00;5087209;28;20451;-81
2022/10/24 08:31:07;;;;;;;6.50;2.33;;;;;;;12.02;100.00;96217.63;5085326;28;20492;-80
2022/10/24 08:33:34;;;;;;;4.90;3.07;;;;;;;12.55;100.00;96319.03;5084322;28;20416;-81
2022/10/24 08:36:04;;;;;;;7.43;2.90;;;;;;;12.45;100.00;96325.59;5082524;28;20478;-81
2022/10/24 08:38:31;;;;;;;3.60;2.60;;;;;;;11.99;100.00;96272.06;5078892;28;20436;-81
2022/10/24 08:40:59;;;;;;;2.83;2.43;;;;;;;11.18;100.00;96153.97;5081325;28;20448;-81
2022/10/24 08:43:26;;;;;;;5.77;2.40;;;;;;;12.01;100.00;96285.75;5087193;28;20503;-81
2022/10/24 08:46:06;;;;;;;2.57;2.37;;;;;;;11.67;100.00;96236.69;5084711;28;20435;-80
2022/10/24 08:48:47;;;;;;;8.80;2.37;;;;;;;12.02;100.00;96299.75;5090434;28;20488;-81
2022/10/24 08:51:35;;;;;;;2.67;2.33;;;;;;;12.09;100.00;96321.94;5081875;28;20448;-81
2022/10/24 08:54:03;;;;;;;6.03;1.60;;;;;;;11.77;100.00;96267.25;5086642;28;20549;-81
2022/10/24 08:56:32;;;;;;;4.90;1.70;;;;;;;11.76;100.00;96286.91;5085586;28;20447;-80
2022/10/24 08:59:00;;;;;;;1.97;1.80;;;;;;;12.12;100.00;96336.41;5090015;28;20571;-80
2022/10/24 09:01:50;;;;;;;4.03;1.70;;;;;;;11.92;100.00;96305.56;5083319;28;20520;-80
2022/10/24 09:04:20;;;;;;;7.30;2.50;;;;;;;11.73;100.00;96285.66;5088805;28;20436;-80
2022/10/24 09:06:51;;;;;;;2.60;2.40;;;;;;;11.63;100.00;96251.72;5088398;28;20455;-80
2022/10/24 09:09:25;;;;;;;3.83;2.10;;;;;;;11.68;100.00;96254.13;5096354;28;20429;-80
2022/10/24 09:12:02;;;;;;;3.57;1.60;;;;;;;11.74;100.00;96257.31;5083541;28;20483;-80
2022/10/24 09:14:36;;;;;;;5.30;2.10;;;;;;;11.51;100.00;96201.44;5082527;28;20428;-80
2022/10/24 09:17:20;;;;;;;4.20;3.17;;;;;;;11.57;100.00;96200.09;5098087;28;20424;-80
2022/10/24 09:20:03;;;;;;;5.97;5.47;;;;;;;11.73;100.00;96210.75;5096815;28;21985;-80
2022/10/24 09:22:33;;;;;;;4.33;3.93;;;;;;;11.49;100.00;96161.28;5072244;28;20559;-80
2022/10/24 09:25:03;;;;;;;6.27;4.50;;;;;;;11.52;100.00;96150.78;5096310;28;20427;-80
2022/10/24 09:27:37;;;;;;;7.90;6.23;;;;;;;11.63;100.00;96174.16;5092730;28;20478;-80
2022/10/24 09:30:06;;;;;;;6.17;3.20;;;;;;;11.75;100.00;96197.94;5091866;28;20516;-80
2022/10/24 09:32:35;;;;;;;4.13;3.83;;;;;;;11.24;100.00;96118.22;5095711;28;20874;-80
2022/10/24 09:35:15;;;;;;;3.93;2.53;;;;;;;11.53;100.00;96149.69;5103211;28;20460;-80
2022/10/24 09:37:47;;;;;;;3.80;3.03;;;;;;;11.81;100.00;96183.38;5098716;28;20504;-80
2022/10/24 09:40:30;;;;;;;6.47;3.47;;;;;;;11.98;100.00;96188.38;5102395;28;20471;-80
2022/10/24 09:43:15;;;;;;;10.47;2.97;;;;;;;12.08;100.00;96192.44;5074865;28;20471;-80
2022/10/24 09:45:44;;;;;;;7.30;3.00;;;;;;;11.98;100.00;96183.09;5075682;28;20428;-80
2022/10/24 09:48:45;;;;;;;4.50;2.93;;;;;;;11.88;100.00;96174.84;5090311;28;20425;-80
2022/10/24 09:51:34;;;;;;;9.87;2.77;;;;;;;12.10;100.00;96192.84;5061112;28;20512;-80
2022/10/24 09:54:05;;;;;;;7.60;4.37;;;;;;;12.16;100.00;96199.47;5085223;28;20436;-80
2022/10/24 09:56:39;;;;;;;6.27;3.60;;;;;;;12.15;100.00;96187.31;5087890;28;20443;-80
2022/10/24 09:59:33;;;;;;;5.83;2.90;;;;;;;12.18;100.00;96178.69;5089023;28;20453;-80
2022/10/24 10:02:06;;;;;;;4.53;2.73;;;;;;;12.20;100.00;96192.38;5090685;28;20837;-79
2022/10/24 10:04:33;;;;;;;4.80;2.90;;;;;;;11.89;100.00;96142.75;5071853;28;20429;-80
2022/10/24 10:07:08;;;;;;;3.60;2.60;;;;;;;12.51;100.00;96204.13;5086310;28;20495;-80
2022/10/24 10:09:41;;;;;;;5.60;3.10;;;;;;;12.62;100.00;96213.88;5089749;28;20425;-80
2022/10/24 10:12:30;;;;;;;3.80;2.83;;;;;;;12.56;100.00;96211.84;5089813;28;20531;-80
2022/10/24 10:14:58;;;;;;;3.80;3.13;;;;;;;12.35;100.00;96165.13;5093824;28;20488;-80
2022/10/24 10:17:27;;;;;;;3.93;2.90;;;;;;;12.34;100.00;96129.09;5084171;28;20543;-80
2022/10/24 10:19:54;;;;;;;4.23;2.63;;;;;;;12.70;100.00;96178.47;5087802;28;20563;-80
2022/10/24 10:22:31;;;;;;;2.57;2.37;;;;;;;12.49;100.00;96154.09;5080101;28;20468;-80
2022/10/24 10:24:59;;;;;;;5.07;3.73;;;;;;;12.80;100.00;96200.28;5106320;28;20482;-79
2022/10/24 10:27:25;;;;;;;6.50;2.80;;;;;;;12.87;100.00;96203.09;5096525;28;20408;-79
2022/10/24 10:30:10;;;;;;;7.63;2.50;;;;;;;12.84;100.00;96201.16;5077476;28;20495;-79
2022/10/24 10:32:43;;;;;;;4.90;3.20;;;;;;;12.59;100.00;96184.63;5095258;28;20430;-79
2022/10/24 10:35:18;;;;;;;6.90;3.10;;;;;;;12.30;100.00;96127.50;5098531;28;20524;-79
2022/10/24 10:38:10;;;;;;;2.40;2.20;;;;;;;12.63;100.00;96186.25;5093880;28;20475;-79
2022/10/24 10:40:43;;;;;;;3.30;2.80;;;;;;;12.79;100.00;96217.31;5105858;28;20547;-80
2022/10/24 10:43:32;;;;;;;8.90;3.60;;;;;;;12.99;100.00;96216.28;5095826;28;20506;-79
2022/10/24 10:46:12;;;;;;;4.57;3.10;;;;;;;12.98;100.00;96223.47;5096705;28;20465;-79
2022/10/24 10:49:16;;;;;;;3.63;3.20;;;;;;;13.06;100.00;96219.09;5100235;28;20428;-79
2022/10/24 10:51:56;;;;;;;4.27;2.90;;;;;;;13.05;100.00;96228.16;5098852;28;20459;-79
2022/10/24 10:54:51;;;;;;;5.33;3.73;;;;;;;12.91;100.00;96198.66;5112834;28;20446;-79
2022/10/24 10:57:23;;;;;;;8.37;4.30;;;;;;;13.05;100.00;96233.47;5113407;28;20496;-79
2022/10/24 11:00:01;;;;;;;6.03;3.50;;;;;;;13.09;100.00;96228.25;5112353;28;20472;-79
2022/10/24 11:02:40;;;;;;;8.07;2.77;;;;;;;13.07;100.00;96243.75;5096362;28;20451;-80
2022/10/24 11:05:22;;;;;;;3.63;2.13;;;;;;;13.05;100.00;96238.78;5115418;28;20401;-79
2022/10/24 11:08:07;;;;;;;2.57;1.80;;;;;;;13.01;100.00;96248.56;5103873;28;20503;-79
2022/10/24 11:10:41;;;;;;;2.50;1.90;;;;;;;12.79;100.00;96228.69;5116320;28;20444;-79
2022/10/24 11:13:17;;;;;;;2.40;1.87;;;;;;;12.51;100.00;96181.03;5097429;28;20447;-78
2022/10/24 11:15:47;;;;;;;3.30;3.00;;;;;;;12.90;100.00;96248.31;5097234;28;20427;-78
2022/10/24 11:18:21;;;;;;;2.33;2.13;;;;;;;12.92;100.00;96242.66;5107649;28;20469;-78
2022/10/24 11:20:56;;;;;;;4.07;2.00;;;;;;;11.94;100.00;96080.78;5089001;28;20494;-79
2022/10/24 11:23:35;;;;;;;3.97;1.70;;;;;;;12.99;100.00;96248.91;5089371;28;20435;-78
2022/10/24 11:26:05;;;;;;;6.50;2.40;;;;;;;12.98;100.00;96233.31;5088982;28;20443;-78
2022/10/24 11:28:41;;;;;;;3.17;1.93;;;;;;;12.69;100.00;96171.63;5090459;28;20440;-79
2022/10/24 11:31:25;;;;;;;5.50;2.00;;;;;;;12.59;100.00;96148.28;5088438;28;20980;-79
2022/10/24 11:34:21;;;;;;;2.43;2.23;;;;;;;12.97;100.00;96192.75;5077918;28;20447;-79
2022/10/24 11:37:11;;;;;;;4.17;2.80;;;;;;;12.65;100.00;96133.63;5083094;28;20441;-79
2022/10/24 11:39:44;;;;;;;3.03;2.03;;;;;;;13.08;100.00;96208.13;5086180;28;20524;-78
2022/10/24 11:42:20;;;;;;;3.07;2.30;;;;;;;13.00;100.00;96178.78;5068359;28;20443;-79
2022/10/24 11:44:54;;;;;;;3.00;2.80;;;;;;;13.28;100.00;96209.75;5087157;28;20429;-79